Flight Track Log - Related Links

Times and Time Zones

All times are in EDT time to prevent confusion due to time zone crossing. See the SWA2412 flight status page for this flight to view local times or setup timezone preferences in your user account.

Time Position Orientation Groundspeed Altitude Reporting Facility
EDT Latitude Longitude Course Direction KTS MPH feet Rate Location/Type
Wed 08:34:39 AM 39.1603 -76.4589 93° East 222 255 5,900  Level Washington Center
Wed 08:35:40 AM 39.1547 -76.3544 94° East 262 302 9,500 3,126 Climbing Washington Center
Wed 08:36:38 AM 39.1514 -76.2392 92° East 294 338 12,100 2,924 Climbing Washington Center
Wed 08:37:39 AM 39.1664 -76.1136 81° East 343 395 15,300 2,281 Climbing Washington Center
Wed 08:38:39 AM 39.1817 -75.9744 82° East 364 419 16,700 1,714 Climbing Washington Center
Wed 08:39:38 AM 39.2278 -75.8356 67° East 402 463 18,700 2,118 Climbing Washington Center
Wed 08:40:38 AM 39.3133 -75.7258 45° Northeast 407 468 20,900 2,115 Climbing Washington Center
Wed 08:41:40 AM 39.4011 -75.6131 45° Northeast 425 489 23,000 2,459 Climbing Washington Center
Wed 08:42:40 AM 39.4886 -75.5003 45° Northeast 435 501 25,900 2,492 Climbing Washington Center
Wed 08:43:38 AM 39.5717 -75.3897 46° Northeast 435 501 27,900 2,038 Climbing Washington Center
Wed 08:45:19 AM 39.7047 -75.2097 46° Northeast 433 498 31,300 1,752 Climbing New York Center
Wed 08:46:19 AM 39.7753 -75.1061 48° Northeast 428 493 32,600 1,587 Climbing New York Center
Wed 08:47:20 AM 39.8547 -74.9892 48° Northeast 428 493 34,500 1,462 Climbing New York Center
Wed 08:48:18 AM 39.9356 -74.8858 44° Northeast 417 480 35,500 1,008 Climbing New York Center
Wed 08:49:19 AM 40.0478 -74.8328 20° North 429 494 36,500 738 Climbing New York Center
Wed 08:50:20 AM 40.1658 -74.7908 15° North 408 470 37,000 248 Climbing New York Center
Wed 08:51:20 AM 40.2883 -74.7436 16° North 429 494 37,000  Level New York Center
Wed 08:52:19 AM 40.4108 -74.6989 16° North 447 514 37,000  Level New York Center
Wed 08:53:21 AM 40.5269 -74.6564 16° North 447 514 37,000  Level New York Center
Wed 08:54:19 AM 40.6469 -74.6139 15° North 441 507 37,000  Level New York Center
Wed 08:55:17 AM 40.7653 -74.5658 17° North 441 507 37,000  Level New York Center
Wed 08:56:53 AM 40.9508 -74.4981 15° North 447 514 37,000  Level Boston Center
Wed 08:57:53 AM 41.0719 -74.4531 16° North 449 517 37,000  Level Boston Center
Wed 08:58:54 AM 41.1942 -74.4056 16° North 456 525 37,000  Level Boston Center
Wed 08:59:55 AM 41.3306 -74.3547 16° North 459 528 37,000  Level Boston Center
Wed 09:00:58 AM 41.4528 -74.3075 16° North 459 528 37,000 -290 Level Boston Center
Wed 09:01:59 AM 41.5781 -74.2597 16° North 463 533 36,400 -1,240 Descending Boston Center
Wed 09:02:59 AM 41.7031 -74.2128 16° North 468 539 34,500 -1,700 Descending Boston Center
Wed 09:03:59 AM 41.8125 -74.1292 30° Northeast 452 520 33,000 -1,339 Descending Boston Center
Wed 09:05:00 AM 41.8856 -73.9936 54° Northeast 444 511 31,800 -1,210 Descending Boston Center
Wed 09:06:03 AM 41.9622 -73.8556 53° Northeast 454 522 30,500 -1,403 Descending Boston Center
Wed 09:07:04 AM 42.0386 -73.7156 54° Northeast 459 528 28,900 -1,770 Descending Boston Center
Wed 09:08:05 AM 42.1292 -73.5489 54° Northeast 468 539 26,900 -1,869 Descending Boston Center
Wed 09:09:06 AM 42.2067 -73.4067 54° Northeast 469 540 25,100 -1,686 Descending Boston Center
Wed 09:10:06 AM 42.2881 -73.2531 54° Northeast 477 549 23,500 -913 Descending Boston Center
Wed 09:12:10 AM 42.4336 -72.9781 54° Northeast 456 525 22,300 -1,049 Descending Boston Center
Wed 09:13:09 AM 42.5092 -72.8361 54° Northeast 458 527 20,300 -1,623 Descending Boston Center
Wed 09:14:12 AM 42.5839 -72.6903 55° Northeast 428 493 19,000 -823 Descending Boston Center
Wed 09:15:13 AM 42.6247 -72.5658 66° East 415 478 18,600 -1,525 Descending Boston Center
Wed 09:16:14 AM 42.6711 -72.4203 67° East 415 478 15,900 -3,246 Descending Boston Center
Wed 09:17:15 AM 42.7197 -72.2575 68° East 397 457 12,000 -2,727 Descending Boston Center
Wed 09:18:15 AM 42.7614 -72.1250 67° East 384 442 10,400 -1,240 Descending Boston Center
Wed 09:19:16 AM 42.7950 -72.0128 68° East 318 366 9,500 -1,279 Descending Boston Center
Wed 09:20:17 AM 42.8253 -71.9056 69° East 303 349 7,800 -1,820 Descending Boston Center
Wed 09:21:18 AM 42.7972 -71.7897 108° East 301 346 5,800 -1,525 Descending Boston Center
Wed 09:22:19 AM 42.8019 -71.6900 86° East 269 310 4,700 -1,033 Descending Boston Center
Wed 09:23:20 AM 42.8208 -71.6033 73° East 239 275 3,700 -1,161 Descending Boston Center
Wed 09:24:23 AM 42.8550 -71.5392 54° Northeast 209 241 2,300 -1,161 Descending Boston Center
Wed 09:25:24 AM 42.8939 -71.4914 42° Northeast 174 200 1,300 -893 Descending Boston Center
Wed 09:26:24 AM 42.9225 -71.4561 42° Northeast 145 167 500 -800 Descending Boston Center
Wed 09:28:00 AM 42.9167 -71.4333 316° Northwest  Level FlightAware Approximate

Login

Don't have an account? Register now (free) for customized features, flight alerts, and more!